Victoria, Canada
Current Conditions -  °F | °C
As of 9:00 PM on Thursday 30 Oct 2014 (Local Time) from CYWH Reporting Station
Light Rain Light Rain  
Wind Chill: 55°   Ceiling: 6000
Heat Index: 55°   Visibility: 12mi
Dew Point: 50°   Wind: 12mph
Humidity: 82%   Direction: 250°WSW
Pressure: 29.73"   Gusts: 17mph
Location:  48.43°N, 123.37°W
Report Text: CYWH 310400Z 25010G15KT 12SM -RA FEW015 SCT025 BKN060 OVC120 13/10 A2973 RMK SC2SC2SC2AC2 SLP067
Loading
Personal Weather Stations






























Interactive Weather Map
Tropical Storm Tracking
New forecast layout! Learn more

10-Day Weather Forecast

Advertisements
Track Severe Weather on mobile